sensor_id;sensor_type;location;lat;lon;timestamp;P1;durP1;ratioP1;P2;durP2;ratioP2
54959;SDS011;40860;51.710;8.736;2024-03-02T00:01:30;10.00;;;8.63;;
54959;SDS011;40860;51.710;8.736;2024-03-02T00:05:34;11.48;;;9.43;;
54959;SDS011;40860;51.710;8.736;2024-03-02T00:09:38;11.35;;;8.75;;
54959;SDS011;40860;51.710;8.736;2024-03-02T00:13:41;10.52;;;9.40;;
54959;SDS011;40860;51.710;8.736;2024-03-02T00:17:46;10.80;;;9.20;;
54959;SDS011;40860;51.710;8.736;2024-03-02T00:22:01;10.30;;;9.20;;
54959;SDS011;40860;51.710;8.736;2024-03-02T00:26:06;10.50;;;8.45;;
54959;SDS011;40860;51.710;8.736;2024-03-02T00:30:13;10.73;;;8.57;;
54959;SDS011;40860;51.710;8.736;2024-03-02T00:34:44;10.32;;;8.73;;
54959;SDS011;40860;51.710;8.736;2024-03-02T00:38:50;11.25;;;9.50;;
54959;SDS011;40860;51.710;8.736;2024-03-02T00:42:55;10.88;;;9.27;;
54959;SDS011;40860;51.710;8.736;2024-03-02T00:46:59;11.00;;;9.63;;
54959;SDS011;40860;51.710;8.736;2024-03-02T00:51:03;12.27;;;9.70;;
54959;SDS011;40860;51.710;8.736;2024-03-02T00:55:08;10.18;;;8.90;;
54959;SDS011;40860;51.710;8.736;2024-03-02T00:59:11;11.82;;;9.35;;
54959;SDS011;40860;51.710;8.736;2024-03-02T01:03:13;10.43;;;9.00;;
54959;SDS011;40860;51.710;8.736;2024-03-02T01:07:17;9.75;;;8.75;;
54959;SDS011;40860;51.710;8.736;2024-03-02T01:11:21;10.85;;;8.77;;
54959;SDS011;40860;51.710;8.736;2024-03-02T01:15:26;11.30;;;9.63;;
54959;SDS011;40860;51.710;8.736;2024-03-02T01:19:29;9.60;;;8.65;;
54959;SDS011;40860;51.710;8.736;2024-03-02T01:23:33;11.40;;;9.45;;
54959;SDS011;40860;51.710;8.736;2024-03-02T01:27:41;13.65;;;10.73;;
54959;SDS011;40860;51.710;8.736;2024-03-02T01:31:47;11.45;;;9.95;;
54959;SDS011;40860;51.710;8.736;2024-03-02T01:35:49;11.10;;;9.60;;
54959;SDS011;40860;51.710;8.736;2024-03-02T01:39:52;11.88;;;9.88;;
54959;SDS011;40860;51.710;8.736;2024-03-02T01:43:57;10.88;;;9.50;;
54959;SDS011;40860;51.710;8.736;2024-03-02T01:48:00;12.20;;;9.32;;
54959;SDS011;40860;51.710;8.736;2024-03-02T01:52:03;11.60;;;10.05;;
54959;SDS011;40860;51.710;8.736;2024-03-02T01:56:09;11.18;;;8.98;;
54959;SDS011;40860;51.710;8.736;2024-03-02T02:00:17;12.40;;;9.98;;
54959;SDS011;40860;51.710;8.736;2024-03-02T02:04:20;12.15;;;10.05;;
54959;SDS011;40860;51.710;8.736;2024-03-02T02:08:28;12.45;;;10.55;;
54959;SDS011;40860;51.710;8.736;2024-03-02T02:12:31;10.98;;;9.73;;
54959;SDS011;40860;51.710;8.736;2024-03-02T02:16:35;13.77;;;11.75;;
54959;SDS011;40860;51.710;8.736;2024-03-02T02:20:38;11.90;;;10.13;;
54959;SDS011;40860;51.710;8.736;2024-03-02T02:24:42;12.13;;;10.82;;
54959;SDS011;40860;51.710;8.736;2024-03-02T02:28:45;14.07;;;11.30;;
54959;SDS011;40860;51.710;8.736;2024-03-02T02:32:52;13.57;;;11.00;;
54959;SDS011;40860;51.710;8.736;2024-03-02T02:37:10;13.20;;;11.10;;
54959;SDS011;40860;51.710;8.736;2024-03-02T02:41:14;14.18;;;11.35;;
54959;SDS011;40860;51.710;8.736;2024-03-02T02:45:17;15.30;;;11.10;;
54959;SDS011;40860;51.710;8.736;2024-03-02T02:49:20;13.23;;;11.27;;
54959;SDS011;40860;51.710;8.736;2024-03-02T02:53:23;14.50;;;11.30;;
54959;SDS011;40860;51.710;8.736;2024-03-02T02:57:27;15.13;;;11.77;;
54959;SDS011;40860;51.710;8.736;2024-03-02T03:01:32;13.98;;;11.48;;
54959;SDS011;40860;51.710;8.736;2024-03-02T03:05:35;16.58;;;11.93;;
54959;SDS011;40860;51.710;8.736;2024-03-02T03:09:38;14.48;;;12.00;;
54959;SDS011;40860;51.710;8.736;2024-03-02T03:13:42;13.90;;;11.48;;
54959;SDS011;40860;51.710;8.736;2024-03-02T03:17:45;16.13;;;12.50;;
54959;SDS011;40860;51.710;8.736;2024-03-02T03:21:48;15.88;;;13.52;;
54959;SDS011;40860;51.710;8.736;2024-03-02T03:25:51;15.70;;;12.98;;
54959;SDS011;40860;51.710;8.736;2024-03-02T03:29:55;16.77;;;13.48;;
54959;SDS011;40860;51.710;8.736;2024-03-02T03:33:58;18.23;;;13.52;;
54959;SDS011;40860;51.710;8.736;2024-03-02T03:38:01;18.50;;;13.68;;
54959;SDS011;40860;51.710;8.736;2024-03-02T03:42:05;18.05;;;14.35;;
54959;SDS011;40860;51.710;8.736;2024-03-02T03:46:09;18.38;;;14.15;;
54959;SDS011;40860;51.710;8.736;2024-03-02T03:50:11;18.67;;;14.10;;
54959;SDS011;40860;51.710;8.736;2024-03-02T03:54:14;18.17;;;13.98;;
54959;SDS011;40860;51.710;8.736;2024-03-02T03:58:17;17.92;;;13.88;;
54959;SDS011;40860;51.710;8.736;2024-03-02T04:02:24;18.33;;;13.13;;
54959;SDS011;40860;51.710;8.736;2024-03-02T04:06:27;17.00;;;12.77;;
54959;SDS011;40860;51.710;8.736;2024-03-02T04:10:30;17.83;;;13.77;;
54959;SDS011;40860;51.710;8.736;2024-03-02T04:14:33;19.10;;;13.50;;
54959;SDS011;40860;51.710;8.736;2024-03-02T04:18:37;18.05;;;13.82;;
54959;SDS011;40860;51.710;8.736;2024-03-02T04:22:40;16.58;;;13.32;;
54959;SDS011;40860;51.710;8.736;2024-03-02T04:26:43;18.00;;;13.43;;
54959;SDS011;40860;51.710;8.736;2024-03-02T04:30:46;16.58;;;13.40;;
54959;SDS011;40860;51.710;8.736;2024-03-02T04:34:50;18.45;;;13.90;;
54959;SDS011;40860;51.710;8.736;2024-03-02T04:38:53;18.00;;;14.10;;
54959;SDS011;40860;51.710;8.736;2024-03-02T04:42:56;18.02;;;13.63;;
54959;SDS011;40860;51.710;8.736;2024-03-02T04:47:00;19.27;;;14.18;;
54959;SDS011;40860;51.710;8.736;2024-03-02T04:51:04;16.13;;;12.65;;
54959;SDS011;40860;51.710;8.736;2024-03-02T04:55:07;16.90;;;13.20;;
54959;SDS011;40860;51.710;8.736;2024-03-02T04:59:30;16.92;;;13.30;;
54959;SDS011;40860;51.710;8.736;2024-03-02T05:03:33;18.25;;;13.75;;
54959;SDS011;40860;51.710;8.736;2024-03-02T05:07:37;18.70;;;13.50;;
54959;SDS011;40860;51.710;8.736;2024-03-02T05:11:41;16.52;;;12.68;;
54959;SDS011;40860;51.710;8.736;2024-03-02T05:16:24;17.83;;;14.02;;
54959;SDS011;40860;51.710;8.736;2024-03-02T05:20:26;17.67;;;13.52;;
54959;SDS011;40860;51.710;8.736;2024-03-02T05:24:31;17.70;;;13.80;;
54959;SDS011;40860;51.710;8.736;2024-03-02T05:28:33;20.40;;;14.05;;
54959;SDS011;40860;51.710;8.736;2024-03-02T05:32:38;18.55;;;13.57;;
54959;SDS011;40860;51.710;8.736;2024-03-02T05:36:41;19.08;;;14.32;;
54959;SDS011;40860;51.710;8.736;2024-03-02T05:40:46;18.80;;;14.27;;
54959;SDS011;40860;51.710;8.736;2024-03-02T05:44:49;20.17;;;14.43;;
54959;SDS011;40860;51.710;8.736;2024-03-02T05:48:52;20.80;;;14.10;;
54959;SDS011;40860;51.710;8.736;2024-03-02T05:52:55;19.00;;;14.95;;
54959;SDS011;40860;51.710;8.736;2024-03-02T05:56:59;20.60;;;14.43;;
54959;SDS011;40860;51.710;8.736;2024-03-02T06:01:18;21.02;;;15.35;;
54959;SDS011;40860;51.710;8.736;2024-03-02T06:05:21;21.90;;;15.15;;
54959;SDS011;40860;51.710;8.736;2024-03-02T06:09:24;21.02;;;15.05;;
54959;SDS011;40860;51.710;8.736;2024-03-02T06:13:29;20.75;;;15.02;;
54959;SDS011;40860;51.710;8.736;2024-03-02T06:17:32;22.13;;;15.23;;
54959;SDS011;40860;51.710;8.736;2024-03-02T06:21:37;23.50;;;15.98;;
54959;SDS011;40860;51.710;8.736;2024-03-02T06:25:41;21.70;;;14.75;;
54959;SDS011;40860;51.710;8.736;2024-03-02T06:29:45;20.55;;;15.10;;
54959;SDS011;40860;51.710;8.736;2024-03-02T06:33:49;20.65;;;14.75;;
54959;SDS011;40860;51.710;8.736;2024-03-02T06:37:52;19.92;;;14.90;;
54959;SDS011;40860;51.710;8.736;2024-03-02T06:41:55;21.35;;;15.20;;
54959;SDS011;40860;51.710;8.736;2024-03-02T06:45:59;19.17;;;15.18;;
54959;SDS011;40860;51.710;8.736;2024-03-02T06:50:03;22.17;;;15.00;;
54959;SDS011;40860;51.710;8.736;2024-03-02T06:54:06;22.38;;;15.45;;
54959;SDS011;40860;51.710;8.736;2024-03-02T06:58:09;24.27;;;15.93;;
54959;SDS011;40860;51.710;8.736;2024-03-02T07:02:13;21.25;;;15.77;;
54959;SDS011;40860;51.710;8.736;2024-03-02T07:06:16;20.20;;;15.55;;
54959;SDS011;40860;51.710;8.736;2024-03-02T07:10:19;22.67;;;15.30;;
54959;SDS011;40860;51.710;8.736;2024-03-02T07:14:21;18.45;;;14.38;;
54959;SDS011;40860;51.710;8.736;2024-03-02T07:18:46;20.70;;;14.65;;
54959;SDS011;40860;51.710;8.736;2024-03-02T07:22:53;19.73;;;14.55;;
54959;SDS011;40860;51.710;8.736;2024-03-02T07:26:56;19.35;;;13.70;;
54959;SDS011;40860;51.710;8.736;2024-03-02T07:30:58;19.35;;;14.20;;
54959;SDS011;40860;51.710;8.736;2024-03-02T07:35:04;18.50;;;14.00;;
54959;SDS011;40860;51.710;8.736;2024-03-02T07:39:07;20.38;;;14.82;;
54959;SDS011;40860;51.710;8.736;2024-03-02T07:43:11;20.45;;;15.30;;
54959;SDS011;40860;51.710;8.736;2024-03-02T07:47:14;19.77;;;15.07;;
54959;SDS011;40860;51.710;8.736;2024-03-02T07:51:18;22.35;;;15.57;;
54959;SDS011;40860;51.710;8.736;2024-03-02T07:55:21;20.70;;;15.00;;
54959;SDS011;40860;51.710;8.736;2024-03-02T07:59:25;19.65;;;14.57;;
54959;SDS011;40860;51.710;8.736;2024-03-02T08:03:27;18.67;;;13.93;;
54959;SDS011;40860;51.710;8.736;2024-03-02T08:07:32;17.10;;;13.07;;
54959;SDS011;40860;51.710;8.736;2024-03-02T08:11:34;18.60;;;13.63;;
54959;SDS011;40860;51.710;8.736;2024-03-02T08:15:38;16.92;;;13.15;;
54959;SDS011;40860;51.710;8.736;2024-03-02T08:19:41;17.10;;;13.55;;
54959;SDS011;40860;51.710;8.736;2024-03-02T08:23:46;16.02;;;12.85;;
54959;SDS011;40860;51.710;8.736;2024-03-02T08:27:49;17.83;;;12.80;;
54959;SDS011;40860;51.710;8.736;2024-03-02T08:31:52;17.60;;;13.35;;
54959;SDS011;40860;51.710;8.736;2024-03-02T08:35:55;18.05;;;13.63;;
54959;SDS011;40860;51.710;8.736;2024-03-02T08:39:59;17.23;;;12.63;;
54959;SDS011;40860;51.710;8.736;2024-03-02T08:44:03;13.80;;;11.90;;
54959;SDS011;40860;51.710;8.736;2024-03-02T08:48:06;13.57;;;11.98;;
54959;SDS011;40860;51.710;8.736;2024-03-02T08:52:10;15.05;;;12.07;;
54959;SDS011;40860;51.710;8.736;2024-03-02T08:56:15;15.00;;;11.27;;
54959;SDS011;40860;51.710;8.736;2024-03-02T09:00:18;14.30;;;11.65;;
54959;SDS011;40860;51.710;8.736;2024-03-02T09:04:22;13.60;;;10.80;;
54959;SDS011;40860;51.710;8.736;2024-03-02T09:08:28;14.10;;;11.02;;
54959;SDS011;40860;51.710;8.736;2024-03-02T09:12:32;13.32;;;10.38;;
54959;SDS011;40860;51.710;8.736;2024-03-02T09:16:35;11.73;;;9.30;;
54959;SDS011;40860;51.710;8.736;2024-03-02T09:20:39;12.73;;;10.20;;
54959;SDS011;40860;51.710;8.736;2024-03-02T09:24:42;11.48;;;10.00;;
54959;SDS011;40860;51.710;8.736;2024-03-02T09:28:46;13.65;;;10.50;;
54959;SDS011;40860;51.710;8.736;2024-03-02T09:32:48;13.30;;;10.30;;
54959;SDS011;40860;51.710;8.736;2024-03-02T09:36:51;12.63;;;10.10;;
54959;SDS011;40860;51.710;8.736;2024-03-02T09:40:54;13.77;;;9.55;;
54959;SDS011;40860;51.710;8.736;2024-03-02T09:44:59;13.07;;;9.80;;
54959;SDS011;40860;51.710;8.736;2024-03-02T09:49:02;10.60;;;9.40;;
54959;SDS011;40860;51.710;8.736;2024-03-02T09:53:05;12.02;;;10.13;;
54959;SDS011;40860;51.710;8.736;2024-03-02T09:57:09;11.40;;;9.90;;
54959;SDS011;40860;51.710;8.736;2024-03-02T10:01:13;11.35;;;9.90;;
54959;SDS011;40860;51.710;8.736;2024-03-02T10:05:25;11.82;;;9.65;;
54959;SDS011;40860;51.710;8.736;2024-03-02T10:09:30;12.18;;;9.77;;
54959;SDS011;40860;51.710;8.736;2024-03-02T10:13:32;10.85;;;9.50;;
54959;SDS011;40860;51.710;8.736;2024-03-02T10:17:37;10.25;;;9.15;;
54959;SDS011;40860;51.710;8.736;2024-03-02T10:21:40;11.38;;;9.02;;
54959;SDS011;40860;51.710;8.736;2024-03-02T10:25:44;10.32;;;9.23;;
54959;SDS011;40860;51.710;8.736;2024-03-02T10:29:58;11.00;;;8.63;;
54959;SDS011;40860;51.710;8.736;2024-03-02T10:34:02;9.98;;;8.98;;
54959;SDS011;40860;51.710;8.736;2024-03-02T10:38:05;10.38;;;8.18;;
54959;SDS011;40860;51.710;8.736;2024-03-02T10:42:08;9.45;;;7.82;;
54959;SDS011;40860;51.710;8.736;2024-03-02T10:46:12;9.82;;;7.85;;
54959;SDS011;40860;51.710;8.736;2024-03-02T10:50:18;9.88;;;8.25;;
54959;SDS011;40860;51.710;8.736;2024-03-02T10:54:20;9.02;;;7.88;;
54959;SDS011;40860;51.710;8.736;2024-03-02T10:58:31;7.95;;;7.05;;
54959;SDS011;40860;51.710;8.736;2024-03-02T11:02:35;8.35;;;6.65;;
54959;SDS011;40860;51.710;8.736;2024-03-02T11:06:44;7.03;;;6.32;;
54959;SDS011;40860;51.710;8.736;2024-03-02T11:10:51;7.15;;;6.32;;
54959;SDS011;40860;51.710;8.736;2024-03-02T11:14:56;8.02;;;6.40;;
54959;SDS011;40860;51.710;8.736;2024-03-02T11:19:01;7.53;;;6.03;;
54959;SDS011;40860;51.710;8.736;2024-03-02T11:23:07;7.20;;;6.30;;
54959;SDS011;40860;51.710;8.736;2024-03-02T11:27:11;7.50;;;6.65;;
54959;SDS011;40860;51.710;8.736;2024-03-02T11:31:14;7.68;;;6.45;;
54959;SDS011;40860;51.710;8.736;2024-03-02T11:35:17;6.63;;;5.95;;
54959;SDS011;40860;51.710;8.736;2024-03-02T11:39:21;7.35;;;6.32;;
54959;SDS011;40860;51.710;8.736;2024-03-02T11:43:25;7.10;;;6.35;;
54959;SDS011;40860;51.710;8.736;2024-03-02T11:47:31;8.00;;;6.13;;
54959;SDS011;40860;51.710;8.736;2024-03-02T11:51:38;6.03;;;5.43;;
54959;SDS011;40860;51.710;8.736;2024-03-02T11:55:56;6.85;;;5.70;;
54959;SDS011;40860;51.710;8.736;2024-03-02T12:00:00;5.63;;;5.07;;
54959;SDS011;40860;51.710;8.736;2024-03-02T12:04:05;5.30;;;4.70;;
54959;SDS011;40860;51.710;8.736;2024-03-02T12:08:10;5.45;;;4.93;;
54959;SDS011;40860;51.710;8.736;2024-03-02T12:12:16;6.43;;;5.30;;
54959;SDS011;40860;51.710;8.736;2024-03-02T12:16:22;5.07;;;4.57;;
54959;SDS011;40860;51.710;8.736;2024-03-02T12:20:26;5.05;;;3.97;;
54959;SDS011;40860;51.710;8.736;2024-03-02T12:24:32;6.38;;;4.18;;
54959;SDS011;40860;51.710;8.736;2024-03-02T12:28:37;4.63;;;4.22;;
54959;SDS011;40860;51.710;8.736;2024-03-02T12:32:40;5.45;;;4.55;;
54959;SDS011;40860;51.710;8.736;2024-03-02T12:36:43;5.00;;;4.50;;
54959;SDS011;40860;51.710;8.736;2024-03-02T12:40:48;5.90;;;4.95;;
54959;SDS011;40860;51.710;8.736;2024-03-02T12:44:52;4.93;;;4.18;;
54959;SDS011;40860;51.710;8.736;2024-03-02T12:48:56;5.68;;;4.40;;
54959;SDS011;40860;51.710;8.736;2024-03-02T12:53:00;4.50;;;4.10;;
54959;SDS011;40860;51.710;8.736;2024-03-02T12:57:03;4.35;;;3.95;;
54959;SDS011;40860;51.710;8.736;2024-03-02T13:01:08;4.50;;;3.97;;
54959;SDS011;40860;51.710;8.736;2024-03-02T13:05:14;5.22;;;3.70;;
54959;SDS011;40860;51.710;8.736;2024-03-02T13:09:17;5.45;;;4.60;;
54959;SDS011;40860;51.710;8.736;2024-03-02T13:13:20;3.70;;;3.40;;
54959;SDS011;40860;51.710;8.736;2024-03-02T13:17:28;4.53;;;3.63;;
54959;SDS011;40860;51.710;8.736;2024-03-02T13:21:38;3.55;;;3.25;;
54959;SDS011;40860;51.710;8.736;2024-03-02T13:25:41;5.30;;;3.92;;
54959;SDS011;40860;51.710;8.736;2024-03-02T13:29:44;3.90;;;3.60;;
54959;SDS011;40860;51.710;8.736;2024-03-02T13:33:48;3.72;;;3.38;;
54959;SDS011;40860;51.710;8.736;2024-03-02T13:37:51;3.63;;;3.33;;
54959;SDS011;40860;51.710;8.736;2024-03-02T13:41:54;4.65;;;3.20;;
54959;SDS011;40860;51.710;8.736;2024-03-02T13:46:04;3.30;;;3.00;;
54959;SDS011;40860;51.710;8.736;2024-03-02T13:50:09;3.33;;;3.03;;
54959;SDS011;40860;51.710;8.736;2024-03-02T13:54:12;3.63;;;2.80;;
54959;SDS011;40860;51.710;8.736;2024-03-02T13:58:15;3.50;;;3.17;;
54959;SDS011;40860;51.710;8.736;2024-03-02T14:02:18;3.17;;;2.88;;
54959;SDS011;40860;51.710;8.736;2024-03-02T14:06:22;3.40;;;3.10;;
54959;SDS011;40860;51.710;8.736;2024-03-02T14:10:28;4.03;;;2.85;;
54959;SDS011;40860;51.710;8.736;2024-03-02T14:14:31;4.18;;;3.35;;
54959;SDS011;40860;51.710;8.736;2024-03-02T14:18:34;3.38;;;3.08;;
54959;SDS011;40860;51.710;8.736;2024-03-02T14:22:38;5.10;;;4.60;;
54959;SDS011;40860;51.710;8.736;2024-03-02T14:26:41;3.13;;;2.70;;
54959;SDS011;40860;51.710;8.736;2024-03-02T14:30:44;2.78;;;2.58;;
54959;SDS011;40860;51.710;8.736;2024-03-02T14:34:46;4.03;;;2.58;;
54959;SDS011;40860;51.710;8.736;2024-03-02T14:38:51;2.70;;;2.50;;
54959;SDS011;40860;51.710;8.736;2024-03-02T14:42:54;2.40;;;2.20;;
54959;SDS011;40860;51.710;8.736;2024-03-02T14:46:57;2.28;;;2.08;;
54959;SDS011;40860;51.710;8.736;2024-03-02T14:51:00;3.63;;;2.75;;
54959;SDS011;40860;51.710;8.736;2024-03-02T14:55:05;2.63;;;2.40;;
54959;SDS011;40860;51.710;8.736;2024-03-02T14:59:09;2.38;;;2.20;;
54959;SDS011;40860;51.710;8.736;2024-03-02T15:03:13;4.22;;;3.28;;
54959;SDS011;40860;51.710;8.736;2024-03-02T15:07:15;3.50;;;2.70;;
54959;SDS011;40860;51.710;8.736;2024-03-02T15:11:20;4.05;;;2.20;;
54959;SDS011;40860;51.710;8.736;2024-03-02T15:15:23;5.40;;;3.75;;
54959;SDS011;40860;51.710;8.736;2024-03-02T15:19:26;2.50;;;2.28;;
54959;SDS011;40860;51.710;8.736;2024-03-02T15:23:29;3.88;;;2.53;;
54959;SDS011;40860;51.710;8.736;2024-03-02T15:27:34;3.75;;;2.80;;
54959;SDS011;40860;51.710;8.736;2024-03-02T15:31:37;2.58;;;2.38;;
54959;SDS011;40860;51.710;8.736;2024-03-02T15:35:40;2.50;;;2.30;;
54959;SDS011;40860;51.710;8.736;2024-03-02T15:39:43;3.03;;;2.55;;
54959;SDS011;40860;51.710;8.736;2024-03-02T15:43:47;4.43;;;3.00;;
54959;SDS011;40860;51.710;8.736;2024-03-02T15:47:50;1.75;;;1.65;;
54959;SDS011;40860;51.710;8.736;2024-03-02T15:51:53;2.00;;;1.88;;
54959;SDS011;40860;51.710;8.736;2024-03-02T15:55:56;2.05;;;1.70;;
54959;SDS011;40860;51.710;8.736;2024-03-02T16:00:00;2.10;;;1.90;;
54959;SDS011;40860;51.710;8.736;2024-03-02T16:04:11;2.35;;;2.10;;
54959;SDS011;40860;51.710;8.736;2024-03-02T16:08:14;3.35;;;2.72;;
54959;SDS011;40860;51.710;8.736;2024-03-02T16:12:17;3.38;;;2.75;;
54959;SDS011;40860;51.710;8.736;2024-03-02T16:16:22;3.15;;;2.88;;
54959;SDS011;40860;51.710;8.736;2024-03-02T16:20:25;3.17;;;2.90;;
54959;SDS011;40860;51.710;8.736;2024-03-02T16:24:28;3.13;;;2.83;;
54959;SDS011;40860;51.710;8.736;2024-03-02T16:28:31;3.03;;;2.47;;
54959;SDS011;40860;51.710;8.736;2024-03-02T16:32:35;3.00;;;2.70;;
54959;SDS011;40860;51.710;8.736;2024-03-02T16:36:38;2.60;;;2.40;;
54959;SDS011;40860;51.710;8.736;2024-03-02T16:40:42;3.28;;;2.58;;
54959;SDS011;40860;51.710;8.736;2024-03-02T16:44:46;4.65;;;2.17;;
54959;SDS011;40860;51.710;8.736;2024-03-02T16:48:50;2.70;;;2.40;;
54959;SDS011;40860;51.710;8.736;2024-03-02T16:52:53;3.95;;;2.60;;
54959;SDS011;40860;51.710;8.736;2024-03-02T16:56:56;2.85;;;2.65;;
54959;SDS011;40860;51.710;8.736;2024-03-02T17:00:59;3.92;;;2.90;;
54959;SDS011;40860;51.710;8.736;2024-03-02T17:05:04;4.88;;;4.05;;
54959;SDS011;40860;51.710;8.736;2024-03-02T17:09:10;3.40;;;3.10;;
54959;SDS011;40860;51.710;8.736;2024-03-02T17:13:13;4.18;;;2.95;;
54959;SDS011;40860;51.710;8.736;2024-03-02T17:17:16;3.17;;;2.75;;
54959;SDS011;40860;51.710;8.736;2024-03-02T17:21:20;3.78;;;3.17;;
54959;SDS011;40860;51.710;8.736;2024-03-02T17:25:24;3.85;;;3.00;;
54959;SDS011;40860;51.710;8.736;2024-03-02T17:29:27;4.03;;;3.20;;
54959;SDS011;40860;51.710;8.736;2024-03-02T17:33:30;4.82;;;3.65;;
54959;SDS011;40860;51.710;8.736;2024-03-02T17:37:35;4.40;;;3.42;;
54959;SDS011;40860;51.710;8.736;2024-03-02T17:41:39;4.03;;;3.63;;
54959;SDS011;40860;51.710;8.736;2024-03-02T17:45:42;3.15;;;2.85;;
54959;SDS011;40860;51.710;8.736;2024-03-02T17:49:45;4.00;;;3.08;;
54959;SDS011;40860;51.710;8.736;2024-03-02T17:53:51;4.53;;;3.17;;
54959;SDS011;40860;51.710;8.736;2024-03-02T17:57:53;3.70;;;3.40;;
54959;SDS011;40860;51.710;8.736;2024-03-02T18:01:56;4.13;;;3.40;;
54959;SDS011;40860;51.710;8.736;2024-03-02T18:06:02;3.75;;;3.45;;
54959;SDS011;40860;51.710;8.736;2024-03-02T18:10:07;3.63;;;3.33;;
54959;SDS011;40860;51.710;8.736;2024-03-02T18:14:10;4.65;;;4.05;;
54959;SDS011;40860;51.710;8.736;2024-03-02T18:18:13;6.25;;;4.90;;
54959;SDS011;40860;51.710;8.736;2024-03-02T18:22:16;6.55;;;4.70;;
54959;SDS011;40860;51.710;8.736;2024-03-02T18:26:20;6.80;;;5.35;;
54959;SDS011;40860;51.710;8.736;2024-03-02T18:30:26;6.40;;;5.25;;
54959;SDS011;40860;51.710;8.736;2024-03-02T18:34:29;5.75;;;4.82;;
54959;SDS011;40860;51.710;8.736;2024-03-02T18:38:33;6.50;;;5.55;;
54959;SDS011;40860;51.710;8.736;2024-03-02T18:42:37;5.97;;;5.05;;
54959;SDS011;40860;51.710;8.736;2024-03-02T18:46:40;7.15;;;5.18;;
54959;SDS011;40860;51.710;8.736;2024-03-02T18:50:46;6.05;;;4.88;;
54959;SDS011;40860;51.710;8.736;2024-03-02T18:54:49;5.57;;;4.80;;
54959;SDS011;40860;51.710;8.736;2024-03-02T18:58:54;9.88;;;5.13;;
54959;SDS011;40860;51.710;8.736;2024-03-02T19:02:57;5.75;;;4.90;;
54959;SDS011;40860;51.710;8.736;2024-03-02T19:07:00;6.85;;;5.70;;
54959;SDS011;40860;51.710;8.736;2024-03-02T19:11:04;6.25;;;5.65;;
54959;SDS011;40860;51.710;8.736;2024-03-02T19:15:08;7.28;;;5.10;;
54959;SDS011;40860;51.710;8.736;2024-03-02T19:19:13;6.05;;;4.80;;
54959;SDS011;40860;51.710;8.736;2024-03-02T19:23:16;5.47;;;4.82;;
54959;SDS011;40860;51.710;8.736;2024-03-02T19:27:29;5.20;;;4.65;;
54959;SDS011;40860;51.710;8.736;2024-03-02T19:31:33;6.97;;;4.78;;
54959;SDS011;40860;51.710;8.736;2024-03-02T19:35:36;5.00;;;4.50;;
54959;SDS011;40860;51.710;8.736;2024-03-02T19:39:39;4.93;;;4.43;;
54959;SDS011;40860;51.710;8.736;2024-03-02T19:43:43;6.07;;;4.72;;
54959;SDS011;40860;51.710;8.736;2024-03-02T19:47:47;5.32;;;4.60;;
54959;SDS011;40860;51.710;8.736;2024-03-02T19:51:50;6.72;;;5.03;;
54959;SDS011;40860;51.710;8.736;2024-03-02T19:55:53;7.43;;;6.03;;
54959;SDS011;40860;51.710;8.736;2024-03-02T19:59:57;11.32;;;7.30;;
54959;SDS011;40860;51.710;8.736;2024-03-02T20:04:01;8.10;;;6.55;;
54959;SDS011;40860;51.710;8.736;2024-03-02T20:08:04;10.02;;;7.35;;
54959;SDS011;40860;51.710;8.736;2024-03-02T20:12:08;10.13;;;9.10;;
54959;SDS011;40860;51.710;8.736;2024-03-02T20:16:11;12.73;;;10.20;;
54959;SDS011;40860;51.710;8.736;2024-03-02T20:20:16;13.20;;;10.40;;
54959;SDS011;40860;51.710;8.736;2024-03-02T20:24:18;11.35;;;9.63;;
54959;SDS011;40860;51.710;8.736;2024-03-02T20:28:23;11.32;;;9.68;;
54959;SDS011;40860;51.710;8.736;2024-03-02T20:32:26;14.20;;;10.18;;
54959;SDS011;40860;51.710;8.736;2024-03-02T20:36:30;13.80;;;10.48;;
54959;SDS011;40860;51.710;8.736;2024-03-02T20:40:33;13.95;;;9.55;;
54959;SDS011;40860;51.710;8.736;2024-03-02T20:44:36;13.50;;;9.57;;
54959;SDS011;40860;51.710;8.736;2024-03-02T20:48:39;11.10;;;9.15;;
54959;SDS011;40860;51.710;8.736;2024-03-02T20:52:49;9.88;;;8.82;;
54959;SDS011;40860;51.710;8.736;2024-03-02T20:56:52;10.90;;;8.25;;
54959;SDS011;40860;51.710;8.736;2024-03-02T21:00:56;11.65;;;9.95;;
54959;SDS011;40860;51.710;8.736;2024-03-02T21:04:59;14.05;;;9.98;;
54959;SDS011;40860;51.710;8.736;2024-03-02T21:09:04;11.38;;;9.02;;
54959;SDS011;40860;51.710;8.736;2024-03-02T21:13:07;13.45;;;10.38;;
54959;SDS011;40860;51.710;8.736;2024-03-02T21:17:11;11.07;;;9.52;;
54959;SDS011;40860;51.710;8.736;2024-03-02T21:21:14;11.07;;;8.15;;
54959;SDS011;40860;51.710;8.736;2024-03-02T21:25:18;10.05;;;7.93;;
54959;SDS011;40860;51.710;8.736;2024-03-02T21:29:22;8.75;;;7.20;;
54959;SDS011;40860;51.710;8.736;2024-03-02T21:33:26;8.63;;;7.03;;
54959;SDS011;40860;51.710;8.736;2024-03-02T21:37:29;9.40;;;7.18;;
54959;SDS011;40860;51.710;8.736;2024-03-02T21:41:33;7.85;;;6.22;;
54959;SDS011;40860;51.710;8.736;2024-03-02T21:45:37;8.60;;;6.88;;
54959;SDS011;40860;51.710;8.736;2024-03-02T21:49:40;8.40;;;6.68;;
54959;SDS011;40860;51.710;8.736;2024-03-02T21:53:43;8.63;;;6.38;;
54959;SDS011;40860;51.710;8.736;2024-03-02T21:57:48;7.40;;;6.60;;
54959;SDS011;40860;51.710;8.736;2024-03-02T22:01:53;8.35;;;6.85;;
54959;SDS011;40860;51.710;8.736;2024-03-02T22:05:56;8.13;;;6.43;;
54959;SDS011;40860;51.710;8.736;2024-03-02T22:10:00;8.02;;;7.00;;
54959;SDS011;40860;51.710;8.736;2024-03-02T22:14:05;7.53;;;6.68;;
54959;SDS011;40860;51.710;8.736;2024-03-02T22:18:08;8.10;;;6.82;;
54959;SDS011;40860;51.710;8.736;2024-03-02T22:22:11;8.75;;;7.35;;
54959;SDS011;40860;51.710;8.736;2024-03-02T22:26:14;8.55;;;7.35;;
54959;SDS011;40860;51.710;8.736;2024-03-02T22:30:19;10.55;;;8.35;;
54959;SDS011;40860;51.710;8.736;2024-03-02T22:34:23;9.65;;;8.10;;
54959;SDS011;40860;51.710;8.736;2024-03-02T22:38:26;9.75;;;8.52;;
54959;SDS011;40860;51.710;8.736;2024-03-02T22:42:29;10.15;;;8.00;;
54959;SDS011;40860;51.710;8.736;2024-03-02T22:46:36;10.77;;;8.18;;
54959;SDS011;40860;51.710;8.736;2024-03-02T22:50:39;9.85;;;8.07;;
54959;SDS011;40860;51.710;8.736;2024-03-02T22:54:42;9.93;;;8.35;;
54959;SDS011;40860;51.710;8.736;2024-03-02T22:58:45;9.60;;;8.20;;
54959;SDS011;40860;51.710;8.736;2024-03-02T23:02:49;9.55;;;8.55;;
54959;SDS011;40860;51.710;8.736;2024-03-02T23:06:52;11.40;;;8.38;;
54959;SDS011;40860;51.710;8.736;2024-03-02T23:10:55;10.95;;;8.50;;
54959;SDS011;40860;51.710;8.736;2024-03-02T23:14:58;10.02;;;8.73;;
54959;SDS011;40860;51.710;8.736;2024-03-02T23:19:02;11.60;;;9.07;;
54959;SDS011;40860;51.710;8.736;2024-03-02T23:23:05;11.13;;;8.90;;
54959;SDS011;40860;51.710;8.736;2024-03-02T23:27:08;9.63;;;8.63;;
54959;SDS011;40860;51.710;8.736;2024-03-02T23:31:10;9.93;;;8.50;;
54959;SDS011;40860;51.710;8.736;2024-03-02T23:35:18;11.43;;;9.10;;
54959;SDS011;40860;51.710;8.736;2024-03-02T23:39:25;10.05;;;8.30;;
54959;SDS011;40860;51.710;8.736;2024-03-02T23:43:46;10.18;;;8.30;;
54959;SDS011;40860;51.710;8.736;2024-03-02T23:47:49;11.38;;;8.60;;
54959;SDS011;40860;51.710;8.736;2024-03-02T23:51:53;10.35;;;9.00;;
54959;SDS011;40860;51.710;8.736;2024-03-02T23:56:06;10.80;;;8.73;;
